createdAt,value
2017-12-26T00:02:03.967Z,0.90
2017-12-26T00:04:31.509Z,0.90
2017-12-26T00:06:59.771Z,0.90
2017-12-26T00:09:28.063Z,0.90
2017-12-26T00:11:55.587Z,0.90
2017-12-26T00:14:23.094Z,0.90
2017-12-26T00:16:50.630Z,0.80
2017-12-26T00:19:18.934Z,0.90
2017-12-26T00:21:46.452Z,0.80
2017-12-26T00:24:14.753Z,0.80
2017-12-26T00:26:45.263Z,0.80
2017-12-26T00:29:13.531Z,0.70
2017-12-26T00:31:41.825Z,0.70
2017-12-26T00:34:09.612Z,0.70
2017-12-26T00:36:37.292Z,0.70
2017-12-26T00:39:04.867Z,0.70
2017-12-26T00:41:32.417Z,0.70
2017-12-26T00:43:59.920Z,0.70
2017-12-26T00:46:28.213Z,0.60
2017-12-26T00:48:55.756Z,0.60
2017-12-26T00:51:24.065Z,0.50
2017-12-26T00:53:51.595Z,0.50
2017-12-26T00:56:19.140Z,0.60
2017-12-26T00:58:46.644Z,0.50
2017-12-26T01:01:14.947Z,0.50
2017-12-26T01:03:42.445Z,0.50
2017-12-26T01:06:10.758Z,0.60
2017-12-26T01:08:38.272Z,0.50
2017-12-26T01:11:06.587Z,0.60
2017-12-26T01:13:34.129Z,0.60
2017-12-26T01:16:01.741Z,0.70
2017-12-26T01:18:30.412Z,0.70
2017-12-26T01:20:57.950Z,0.60
2017-12-26T01:23:25.481Z,0.60
2017-12-26T01:25:54.914Z,0.50
2017-12-26T01:28:24.751Z,0.50
2017-12-26T01:30:53.421Z,0.50
2017-12-26T01:33:21.978Z,0.40
2017-12-26T01:35:50.901Z,0.50
2017-12-26T01:38:19.705Z,0.50
2017-12-26T01:40:48.177Z,0.50
2017-12-26T01:43:15.715Z,0.50
2017-12-26T01:45:43.226Z,0.40
2017-12-26T01:48:10.730Z,0.40
2017-12-26T01:50:39.030Z,0.40
2017-12-26T01:53:06.541Z,0.40
2017-12-26T01:55:34.067Z,0.40
2017-12-26T01:58:01.570Z,0.40
2017-12-26T02:00:29.108Z,0.50
2017-12-26T02:02:57.379Z,0.40
2017-12-26T02:05:24.913Z,0.40
2017-12-26T02:07:52.416Z,0.40
2017-12-26T02:10:19.919Z,0.40
2017-12-26T02:12:47.455Z,0.40
2017-12-26T02:15:14.964Z,0.30
2017-12-26T02:17:42.483Z,0.40
2017-12-26T02:20:10.072Z,0.30
2017-12-26T02:22:37.636Z,0.30
2017-12-26T02:25:05.159Z,0.40
2017-12-26T02:27:32.688Z,0.30
2017-12-26T02:30:02.574Z,0.30
2017-12-26T02:32:30.105Z,0.40
2017-12-26T02:34:57.617Z,0.40
2017-12-26T02:37:25.158Z,0.40
2017-12-26T02:39:53.463Z,0.40
2017-12-26T02:42:21.075Z,0.40
2017-12-26T02:44:48.591Z,0.40
2017-12-26T02:47:16.099Z,0.30
2017-12-26T02:49:43.623Z,0.40
2017-12-26T02:52:11.121Z,0.40
2017-12-26T02:54:39.487Z,0.30
2017-12-26T02:57:07.006Z,0.30
2017-12-26T02:59:34.553Z,0.30
2017-12-26T03:02:02.075Z,0.30
2017-12-26T03:04:30.352Z,0.20
2017-12-26T03:06:58.641Z,0.20
2017-12-26T03:09:26.926Z,0.20
2017-12-26T03:11:54.464Z,0.20
2017-12-26T03:14:21.956Z,0.20
2017-12-26T03:16:49.480Z,0.20
2017-12-26T03:19:17.744Z,0.20
2017-12-26T03:21:45.284Z,0.20
2017-12-26T03:24:12.804Z,0.10
2017-12-26T03:26:40.320Z,0.20
2017-12-26T03:29:08.631Z,0.20
2017-12-26T03:31:36.185Z,0.20
2017-12-26T03:34:03.708Z,0.20
2017-12-26T03:36:31.226Z,0.30
2017-12-26T03:38:58.746Z,0.30
2017-12-26T03:41:27.021Z,0.30
2017-12-26T03:43:55.304Z,0.30
2017-12-26T03:46:23.568Z,0.30
2017-12-26T03:48:51.111Z,0.30
2017-12-26T03:51:18.603Z,0.30
2017-12-26T03:53:46.967Z,0.30
2017-12-26T03:56:15.267Z,0.30
2017-12-26T03:58:42.826Z,0.20
2017-12-26T04:01:10.341Z,0.30
2017-12-26T04:03:37.831Z,0.20
2017-12-26T04:06:05.372Z,0.10
2017-12-26T04:08:32.903Z,0.20
2017-12-26T04:11:00.428Z,0.20
2017-12-26T04:13:27.957Z,0.10
2017-12-26T04:15:56.330Z,0.00
2017-12-26T04:18:23.882Z,0.00
2017-12-26T04:20:51.426Z,-0.10
2017-12-26T04:23:18.932Z,-0.10
2017-12-26T04:25:46.472Z,-0.10
2017-12-26T04:28:13.983Z,-0.10
2017-12-26T04:30:41.488Z,-0.10
2017-12-26T04:33:09.783Z,-0.10
2017-12-26T04:35:37.299Z,-0.10
2017-12-26T04:38:04.858Z,-0.10
2017-12-26T04:40:32.377Z,0.00
2017-12-26T04:42:59.925Z,0.10
2017-12-26T04:45:27.450Z,0.10
2017-12-26T04:47:56.163Z,0.00
2017-12-26T04:50:23.703Z,0.00
2017-12-26T04:52:51.985Z,0.10
2017-12-26T04:55:20.236Z,0.10
2017-12-26T04:57:47.794Z,0.00
2017-12-26T05:00:15.321Z,0.00
2017-12-26T05:02:42.849Z,0.10
2017-12-26T05:05:10.366Z,0.10
2017-12-26T05:07:37.887Z,0.10
2017-12-26T05:10:05.407Z,0.10
2017-12-26T05:12:33.711Z,0.10
2017-12-26T05:15:01.188Z,0.10
2017-12-26T05:17:28.706Z,0.10
2017-12-26T05:19:57.033Z,0.20
2017-12-26T05:22:24.542Z,0.20
2017-12-26T05:27:33.405Z,0.30
2017-12-26T05:30:00.942Z,0.40
2017-12-26T05:32:29.221Z,0.50
2017-12-26T05:34:56.754Z,0.40
2017-12-26T05:37:24.267Z,0.50
2017-12-26T05:39:51.832Z,0.40
2017-12-26T05:42:19.355Z,0.40
2017-12-26T05:44:47.614Z,0.40
2017-12-26T05:47:15.157Z,0.40
2017-12-26T05:49:42.677Z,0.40
2017-12-26T05:52:10.193Z,0.40
2017-12-26T05:54:38.487Z,0.50
2017-12-26T05:57:06.004Z,0.50
2017-12-26T05:59:33.532Z,0.50
2017-12-26T06:02:01.065Z,0.40
2017-12-26T06:04:28.600Z,0.50
2017-12-26T06:06:56.884Z,0.50
2017-12-26T06:09:24.416Z,0.40
2017-12-26T06:11:51.915Z,0.40
2017-12-26T06:14:19.419Z,0.50
2017-12-26T06:16:46.977Z,0.40
2017-12-26T06:19:14.497Z,0.40
2017-12-26T06:21:42.015Z,0.50
2017-12-26T06:24:09.556Z,0.50
2017-12-26T06:26:37.089Z,0.50
2017-12-26T06:29:04.633Z,0.50
2017-12-26T06:31:32.160Z,0.50
2017-12-26T06:34:00.465Z,0.50
2017-12-26T06:36:27.979Z,0.50
2017-12-26T06:38:55.503Z,0.50
2017-12-26T06:41:23.025Z,0.50
2017-12-26T06:43:51.288Z,0.60
2017-12-26T06:46:19.588Z,0.60
2017-12-26T06:48:47.114Z,0.60
2017-12-26T06:51:14.644Z,0.50
2017-12-26T06:53:42.182Z,0.60
2017-12-26T06:56:09.696Z,0.50
2017-12-26T06:58:37.203Z,0.50
2017-12-26T07:01:04.733Z,0.50
2017-12-26T07:03:33.017Z,0.40
2017-12-26T07:06:00.545Z,0.40
2017-12-26T07:08:28.050Z,0.40
2017-12-26T07:10:55.567Z,0.30
2017-12-26T07:13:23.087Z,0.40
2017-12-26T07:15:51.484Z,0.40
2017-12-26T07:18:18.992Z,0.30
2017-12-26T07:23:45.556Z,0.40
2017-12-26T07:26:13.085Z,0.40
2017-12-26T07:28:41.341Z,0.40
2017-12-26T07:31:08.850Z,0.40
2017-12-26T07:33:36.371Z,0.40
2017-12-26T07:36:03.869Z,0.50
2017-12-26T07:38:31.388Z,0.50
2017-12-26T07:40:58.888Z,0.50
2017-12-26T07:43:26.412Z,0.50
2017-12-26T07:45:54.689Z,0.60
2017-12-26T07:48:22.995Z,0.60
2017-12-26T07:50:50.492Z,0.60
2017-12-26T07:53:17.994Z,0.70
2017-12-26T07:55:45.549Z,0.70
2017-12-26T07:58:13.060Z,0.80
2017-12-26T08:00:40.574Z,0.80
2017-12-26T08:03:08.093Z,0.90
2017-12-26T08:08:31.865Z,1.00
2017-12-26T08:11:19.015Z,1.00
2017-12-26T08:16:49.131Z,1.10
2017-12-26T08:19:16.661Z,1.40
2017-12-26T08:21:44.239Z,1.50
2017-12-26T08:24:11.869Z,1.70
2017-12-26T08:26:39.386Z,1.90
2017-12-26T08:29:06.942Z,2.10
2017-12-26T08:31:34.445Z,2.40
2017-12-26T08:34:01.943Z,2.80
2017-12-26T08:36:29.466Z,3.10
2017-12-26T08:38:56.976Z,3.70
2017-12-26T08:41:24.519Z,4.30
2017-12-26T08:43:52.042Z,5.00
2017-12-26T08:46:19.569Z,5.50
2017-12-26T08:48:47.911Z,6.60
2017-12-26T08:51:15.411Z,6.60
2017-12-26T08:53:43.704Z,7.20
2017-12-26T08:56:11.277Z,7.20
2017-12-26T08:58:38.786Z,7.50
2017-12-26T09:01:07.051Z,8.20
2017-12-26T09:03:34.667Z,8.20
2017-12-26T09:06:02.185Z,8.30
2017-12-26T09:08:30.498Z,8.50
2017-12-26T09:10:58.015Z,8.50
2017-12-26T09:13:26.288Z,8.90
2017-12-26T09:15:53.827Z,8.80
2017-12-26T09:18:21.339Z,9.00
2017-12-26T09:20:48.859Z,9.20
2017-12-26T09:23:16.387Z,9.20
2017-12-26T09:25:43.884Z,9.50
2017-12-26T09:28:11.466Z,9.60
2017-12-26T09:30:38.986Z,9.70
2017-12-26T09:33:06.509Z,9.80
2017-12-26T09:35:34.847Z,10.00
2017-12-26T09:38:03.130Z,10.00
2017-12-26T09:40:31.440Z,10.10
2017-12-26T09:42:58.962Z,10.00
2017-12-26T09:45:27.265Z,10.20
2017-12-26T09:47:54.780Z,10.20
2017-12-26T09:50:22.315Z,10.10
2017-12-26T09:52:49.887Z,10.20
2017-12-26T09:55:17.453Z,10.20
2017-12-26T09:57:44.986Z,10.10
2017-12-26T10:00:12.520Z,10.10
2017-12-26T10:02:40.068Z,10.10
2017-12-26T10:05:07.590Z,10.10
2017-12-26T10:07:35.118Z,10.10
2017-12-26T10:10:02.645Z,10.10
2017-12-26T10:12:30.203Z,10.10
2017-12-26T10:14:58.382Z,10.20
2017-12-26T10:17:25.921Z,10.20
2017-12-26T10:19:54.210Z,10.30
2017-12-26T10:22:21.745Z,10.20
2017-12-26T10:24:50.028Z,10.30
2017-12-26T10:27:18.339Z,10.30
2017-12-26T10:29:45.879Z,10.30
2017-12-26T10:32:13.433Z,10.40
2017-12-26T10:34:41.008Z,10.30
2017-12-26T10:37:08.513Z,10.20
2017-12-26T10:39:36.012Z,10.30
2017-12-26T10:42:03.577Z,10.30
2017-12-26T10:44:31.104Z,10.30
2017-12-26T10:46:58.713Z,10.20
2017-12-26T10:49:27.436Z,10.20
2017-12-26T10:52:20.095Z,10.10
2017-12-26T10:54:50.445Z,10.10
2017-12-26T10:57:20.956Z,10.10
2017-12-26T11:00:01.368Z,10.10
2017-12-26T11:02:29.158Z,10.10
2017-12-26T11:04:56.688Z,10.00
2017-12-26T11:07:24.247Z,10.00
2017-12-26T11:09:51.764Z,9.90
2017-12-26T11:12:20.056Z,9.70
2017-12-26T11:14:48.006Z,9.70
2017-12-26T11:17:16.473Z,9.30
2017-12-26T11:19:44.017Z,9.30
2017-12-26T11:22:11.553Z,9.10
2017-12-26T11:24:39.084Z,9.20
2017-12-26T11:27:06.679Z,9.10
2017-12-26T11:29:34.196Z,9.20
2017-12-26T11:32:05.373Z,9.20
2017-12-26T11:34:32.935Z,9.20
2017-12-26T11:37:00.442Z,9.10
2017-12-26T11:39:28.765Z,9.20
2017-12-26T11:41:56.319Z,9.20
2017-12-26T11:44:23.831Z,9.10
2017-12-26T11:46:51.372Z,9.00
2017-12-26T11:49:18.895Z,9.00
2017-12-26T11:51:46.416Z,9.00
2017-12-26T11:54:14.725Z,8.90
2017-12-26T11:56:42.280Z,8.80
2017-12-26T11:59:09.850Z,8.80
2017-12-26T12:01:37.389Z,8.80
2017-12-26T12:04:04.920Z,8.80
2017-12-26T12:06:33.216Z,8.70
2017-12-26T12:09:01.516Z,8.70
2017-12-26T12:11:29.061Z,8.70
2017-12-26T12:13:56.589Z,8.60
2017-12-26T12:16:24.906Z,8.60
2017-12-26T12:18:52.413Z,8.60
2017-12-26T12:21:19.950Z,8.60
2017-12-26T12:23:47.468Z,8.70
2017-12-26T12:26:14.993Z,8.60
2017-12-26T12:28:42.516Z,8.70
2017-12-26T12:31:13.618Z,8.80
2017-12-26T12:33:41.934Z,8.70
2017-12-26T12:36:09.548Z,8.70
2017-12-26T12:38:37.876Z,8.70
2017-12-26T12:41:05.369Z,8.70
2017-12-26T12:43:32.912Z,8.70
2017-12-26T12:46:00.473Z,8.70
2017-12-26T12:48:28.040Z,8.60
2017-12-26T12:50:55.569Z,8.60
2017-12-26T12:53:23.129Z,8.50
2017-12-26T12:55:50.665Z,8.40
2017-12-26T12:58:39.330Z,8.30
2017-12-26T13:01:07.046Z,8.10
2017-12-26T13:03:34.596Z,8.30
2017-12-26T13:06:02.410Z,8.50
2017-12-26T13:08:30.012Z,8.80
2017-12-26T13:10:58.096Z,9.00
2017-12-26T13:13:25.697Z,9.00
2017-12-26T13:15:53.241Z,8.70
2017-12-26T13:18:20.953Z,8.50
2017-12-26T13:20:48.486Z,8.50
2017-12-26T13:23:16.041Z,8.40
2017-12-26T13:25:43.582Z,8.30
2017-12-26T13:28:11.156Z,8.20
2017-12-26T13:30:38.696Z,8.20
2017-12-26T13:33:06.993Z,8.10
2017-12-26T13:35:34.511Z,8.10
2017-12-26T13:38:02.031Z,8.20
2017-12-26T13:40:29.579Z,8.30
2017-12-26T13:42:57.076Z,8.40
2017-12-26T13:45:24.892Z,8.40
2017-12-26T13:47:52.456Z,8.40
2017-12-26T13:50:20.068Z,8.40
2017-12-26T13:53:01.706Z,8.50
2017-12-26T13:55:29.513Z,8.60
2017-12-26T13:57:57.083Z,8.30
2017-12-26T14:00:24.597Z,8.30
2017-12-26T14:02:52.120Z,8.30
2017-12-26T14:05:20.435Z,8.30
2017-12-26T14:07:47.935Z,8.30
2017-12-26T14:10:15.446Z,8.20
2017-12-26T14:12:42.989Z,8.20
2017-12-26T14:15:10.559Z,8.10
2017-12-26T14:17:38.087Z,8.30
2017-12-26T14:20:05.639Z,8.30
2017-12-26T14:22:33.929Z,8.20
2017-12-26T14:25:02.246Z,8.10
2017-12-26T14:27:29.773Z,8.10
2017-12-26T14:29:57.292Z,8.10
2017-12-26T14:32:24.844Z,8.10
2017-12-26T14:34:52.348Z,8.00
2017-12-26T14:37:19.866Z,8.00
2017-12-26T14:39:47.393Z,8.00
2017-12-26T14:42:14.917Z,8.10
2017-12-26T14:44:42.448Z,8.10
2017-12-26T14:47:09.969Z,8.00
2017-12-26T14:49:37.499Z,8.10
2017-12-26T14:52:05.099Z,8.00
2017-12-26T14:54:32.630Z,8.00
2017-12-26T14:57:00.152Z,7.90
2017-12-26T14:59:28.456Z,7.80
2017-12-26T15:04:28.581Z,7.80
2017-12-26T15:06:56.894Z,7.60
2017-12-26T15:09:24.429Z,7.60
2017-12-26T15:11:51.946Z,7.60
2017-12-26T15:14:19.463Z,7.50
2017-12-26T15:16:47.018Z,7.40
2017-12-26T15:19:14.523Z,7.40
2017-12-26T15:21:42.056Z,7.30
2017-12-26T15:24:09.575Z,7.30
2017-12-26T15:26:37.110Z,7.20
2017-12-26T15:29:05.411Z,7.10
2017-12-26T15:31:32.946Z,7.10
2017-12-26T15:34:01.220Z,7.10
2017-12-26T15:36:28.730Z,7.10
2017-12-26T15:38:56.254Z,7.00
2017-12-26T15:43:59.878Z,6.90
2017-12-26T15:46:27.412Z,6.90
2017-12-26T15:48:54.936Z,6.90
2017-12-26T15:51:22.439Z,6.90
2017-12-26T15:53:51.084Z,6.80
2017-12-26T15:56:19.456Z,6.80
2017-12-26T15:58:47.249Z,6.70
2017-12-26T16:01:14.832Z,6.70
2017-12-26T16:03:43.224Z,6.70
2017-12-26T16:06:10.750Z,6.70
2017-12-26T16:08:38.325Z,6.70
2017-12-26T16:11:06.609Z,6.70
2017-12-26T16:13:34.937Z,6.70
2017-12-26T16:16:02.466Z,6.70
2017-12-26T16:18:30.002Z,6.70
2017-12-26T16:20:58.327Z,6.70
2017-12-26T16:23:25.841Z,6.70
2017-12-26T16:25:53.381Z,6.70
2017-12-26T16:28:21.683Z,6.60
2017-12-26T16:30:49.204Z,6.60
2017-12-26T16:33:16.762Z,6.50
2017-12-26T16:35:44.336Z,6.50
2017-12-26T16:38:12.652Z,6.50
2017-12-26T16:40:40.184Z,6.50
2017-12-26T16:43:08.495Z,6.50
2017-12-26T16:45:36.049Z,6.50
2017-12-26T16:48:03.595Z,6.40
2017-12-26T16:50:31.103Z,6.40
2017-12-26T16:52:58.640Z,6.40
2017-12-26T16:55:26.144Z,6.30
2017-12-26T16:57:54.431Z,6.20
2017-12-26T17:00:22.715Z,6.20
2017-12-26T17:02:50.511Z,6.10
2017-12-26T17:05:18.040Z,6.20
2017-12-26T17:07:46.321Z,6.20
2017-12-26T17:10:13.911Z,6.20
2017-12-26T17:12:41.431Z,6.10
2017-12-26T17:15:09.684Z,6.00
2017-12-26T17:17:37.804Z,5.90
2017-12-26T17:20:05.356Z,5.90
2017-12-26T17:22:32.902Z,5.80
2017-12-26T17:25:01.208Z,5.80
2017-12-26T17:27:28.745Z,5.80
2017-12-26T17:29:56.302Z,5.90
2017-12-26T17:32:23.879Z,5.90
2017-12-26T17:34:51.582Z,5.90
2017-12-26T17:39:59.570Z,6.00
2017-12-26T17:42:27.095Z,6.00
2017-12-26T17:44:55.455Z,6.00
2017-12-26T17:47:23.825Z,5.90
2017-12-26T17:49:51.371Z,5.90
2017-12-26T17:52:18.998Z,6.00
2017-12-26T17:54:46.504Z,5.90
2017-12-26T17:57:14.045Z,5.90
2017-12-26T17:59:41.948Z,5.90
2017-12-26T18:02:10.322Z,5.90
2017-12-26T18:04:38.612Z,5.90
2017-12-26T18:07:06.942Z,5.90
2017-12-26T18:09:34.468Z,5.90
2017-12-26T18:12:02.009Z,5.90
2017-12-26T18:14:30.277Z,5.90
2017-12-26T18:16:58.582Z,5.90
2017-12-26T18:19:26.115Z,5.80
2017-12-26T18:21:54.434Z,5.80
2017-12-26T18:24:21.958Z,5.80
2017-12-26T18:26:49.496Z,5.80
2017-12-26T18:29:17.814Z,5.70
2017-12-26T18:31:45.374Z,5.80
2017-12-26T18:34:12.895Z,5.80
2017-12-26T18:36:41.213Z,5.70
2017-12-26T18:39:08.752Z,5.70
2017-12-26T18:41:36.268Z,5.70
2017-12-26T18:44:03.822Z,5.70
2017-12-26T18:46:31.416Z,5.70
2017-12-26T18:48:59.695Z,5.70
2017-12-26T18:51:27.990Z,5.60
2017-12-26T18:54:00.323Z,5.60
2017-12-26T18:56:27.862Z,5.60
2017-12-26T18:58:55.424Z,5.60
2017-12-26T19:01:22.971Z,5.60
2017-12-26T19:03:50.494Z,5.60
2017-12-26T19:06:18.035Z,5.60
2017-12-26T19:08:46.321Z,5.60
2017-12-26T19:11:13.843Z,5.50
2017-12-26T19:13:41.378Z,5.50
2017-12-26T19:16:08.923Z,5.50
2017-12-26T19:18:36.439Z,5.40
2017-12-26T19:21:04.728Z,5.40
2017-12-26T19:23:33.012Z,5.40
2017-12-26T19:26:00.578Z,5.40
2017-12-26T19:28:28.081Z,5.30
2017-12-26T19:30:56.121Z,5.20
2017-12-26T19:33:23.647Z,5.20
2017-12-26T19:35:51.933Z,5.10
2017-12-26T19:38:19.492Z,5.10
2017-12-26T19:40:47.041Z,5.20
2017-12-26T19:43:15.340Z,5.00
2017-12-26T19:45:42.847Z,5.00
2017-12-26T19:48:10.395Z,5.00
2017-12-26T19:50:37.894Z,4.90
2017-12-26T19:53:05.464Z,4.90
2017-12-26T19:55:32.996Z,4.90
2017-12-26T19:58:00.558Z,4.80
2017-12-26T20:00:28.469Z,4.80
2017-12-26T20:02:56.468Z,4.80
2017-12-26T20:05:24.055Z,4.80
2017-12-26T20:07:51.562Z,4.80
2017-12-26T20:10:19.132Z,4.70
2017-12-26T20:12:46.932Z,4.70
2017-12-26T20:15:14.559Z,4.60
2017-12-26T20:17:42.153Z,4.70
2017-12-26T20:20:09.684Z,4.60
2017-12-26T20:22:37.290Z,4.60
2017-12-26T20:25:05.092Z,4.50
2017-12-26T20:27:32.669Z,4.50
2017-12-26T20:30:00.185Z,4.40
2017-12-26T20:32:27.734Z,4.30
2017-12-26T20:34:56.056Z,4.30
2017-12-26T20:37:23.568Z,4.30
2017-12-26T20:39:52.544Z,4.30
2017-12-26T20:42:20.254Z,4.30
2017-12-26T20:44:47.930Z,4.20
2017-12-26T20:47:15.623Z,4.20
2017-12-26T20:49:43.279Z,4.20
2017-12-26T20:52:10.833Z,4.20
2017-12-26T20:54:38.368Z,4.10
2017-12-26T21:02:41.962Z,4.10
2017-12-26T21:05:10.245Z,4.10
2017-12-26T21:07:38.539Z,4.10
2017-12-26T21:10:06.085Z,4.10
2017-12-26T21:12:34.514Z,4.10
2017-12-26T21:15:02.154Z,4.10
2017-12-26T21:17:29.692Z,4.10
2017-12-26T21:19:57.226Z,4.10
2017-12-26T21:22:24.756Z,4.10
2017-12-26T21:24:52.279Z,4.10
2017-12-26T21:27:19.824Z,4.10
2017-12-26T21:29:48.107Z,4.10
2017-12-26T21:32:15.616Z,4.10
2017-12-26T21:34:43.134Z,4.10
2017-12-26T21:37:10.664Z,4.10
2017-12-26T21:39:38.989Z,4.10
2017-12-26T21:42:06.505Z,4.10
2017-12-26T21:44:34.043Z,4.10
2017-12-26T21:47:01.610Z,4.10
2017-12-26T21:49:29.890Z,4.10
2017-12-26T21:51:58.177Z,4.10
2017-12-26T21:54:26.445Z,4.10
2017-12-26T21:56:54.746Z,4.00
2017-12-26T21:59:22.393Z,4.00
2017-12-26T22:01:50.465Z,4.00
2017-12-26T22:04:19.080Z,3.90
2017-12-26T22:06:46.639Z,3.90
2017-12-26T22:09:14.170Z,3.90
2017-12-26T22:11:42.465Z,3.90
2017-12-26T22:14:10.995Z,3.90
2017-12-26T22:16:38.519Z,3.90
2017-12-26T22:19:06.018Z,3.90
2017-12-26T22:21:33.671Z,3.90
2017-12-26T22:24:12.383Z,3.90
2017-12-26T22:26:45.657Z,3.90
2017-12-26T22:29:22.308Z,3.90
2017-12-26T22:31:58.091Z,4.00
2017-12-26T22:34:30.905Z,4.00
2017-12-26T22:37:01.392Z,4.00
2017-12-26T22:39:28.968Z,4.10
2017-12-26T22:41:56.961Z,4.10
2017-12-26T22:44:24.904Z,4.10
2017-12-26T22:46:52.461Z,4.10
2017-12-26T22:49:20.009Z,4.10
2017-12-26T22:51:48.132Z,4.10
2017-12-26T22:54:16.810Z,4.10
2017-12-26T22:56:45.543Z,4.10
2017-12-26T22:59:13.105Z,4.10
2017-12-26T23:01:42.172Z,4.10
2017-12-26T23:04:09.827Z,4.20
2017-12-26T23:06:38.653Z,4.20
2017-12-26T23:09:06.822Z,4.20
2017-12-26T23:17:27.197Z,4.30
2017-12-26T23:20:01.540Z,4.50
2017-12-26T23:22:31.142Z,4.50
2017-12-26T23:25:05.380Z,4.50
2017-12-26T23:27:38.599Z,4.50
2017-12-26T23:30:11.639Z,4.50
2017-12-26T23:32:47.707Z,4.40
2017-12-26T23:35:21.067Z,4.40
2017-12-26T23:37:54.348Z,4.40
2017-12-26T23:40:27.886Z,4.40
2017-12-26T23:43:01.262Z,4.40
2017-12-26T23:45:34.523Z,4.40
2017-12-26T23:48:08.204Z,4.50
2017-12-26T23:50:41.375Z,4.50
2017-12-26T23:53:14.704Z,4.50
2017-12-26T23:55:48.058Z,4.50
2017-12-26T23:58:21.348Z,4.40
